createdAt,value
2017-09-16T00:00:22.759Z,45.70
2017-09-16T00:02:50.197Z,45.90
2017-09-16T00:05:17.729Z,47.60
2017-09-16T00:07:45.149Z,47.50
2017-09-16T00:10:12.576Z,47.80
2017-09-16T00:12:40.114Z,46.60
2017-09-16T00:15:07.552Z,46.10
2017-09-16T00:17:34.978Z,46.80
2017-09-16T00:20:02.421Z,48.90
2017-09-16T00:22:29.853Z,48.00
2017-09-16T00:24:57.335Z,48.40
2017-09-16T00:27:24.845Z,47.80
2017-09-16T00:29:52.265Z,46.30
2017-09-16T00:32:19.756Z,45.50
2017-09-16T00:34:47.185Z,46.00
2017-09-16T00:37:14.613Z,45.60
2017-09-16T00:39:42.123Z,45.50
2017-09-16T00:42:09.548Z,45.40
2017-09-16T00:44:36.985Z,45.70
2017-09-16T00:47:04.429Z,46.60
2017-09-16T00:49:31.868Z,46.00
2017-09-16T00:51:59.285Z,46.30
2017-09-16T00:54:26.865Z,45.70
2017-09-16T00:56:54.315Z,45.30
2017-09-16T00:59:21.784Z,46.00
2017-09-16T01:01:49.239Z,48.60
2017-09-16T01:04:16.884Z,52.00
2017-09-16T01:06:44.460Z,52.40
2017-09-16T01:09:11.913Z,51.70
2017-09-16T01:11:39.368Z,50.10
2017-09-16T01:14:06.835Z,48.30
2017-09-16T01:16:34.296Z,46.90
2017-09-16T01:19:01.916Z,46.20
2017-09-16T01:21:30.216Z,46.20
2017-09-16T01:23:57.870Z,45.70
2017-09-16T01:26:25.310Z,46.00
2017-09-16T01:28:52.731Z,45.60
2017-09-16T01:31:20.929Z,46.60
2017-09-16T01:33:48.383Z,46.60
2017-09-16T01:36:15.828Z,48.00
2017-09-16T01:38:43.252Z,48.50
2017-09-16T01:41:10.900Z,49.10
2017-09-16T01:43:38.477Z,49.90
2017-09-16T01:46:06.018Z,50.70
2017-09-16T01:48:33.494Z,49.60
2017-09-16T01:51:01.017Z,47.90
2017-09-16T01:53:28.516Z,47.10
2017-09-16T01:55:55.962Z,46.90
2017-09-16T01:58:23.417Z,48.40
2017-09-16T02:00:50.868Z,48.50
2017-09-16T02:03:18.316Z,49.60
2017-09-16T02:05:45.761Z,50.80
2017-09-16T02:08:13.236Z,49.70
2017-09-16T02:10:40.640Z,50.10
2017-09-16T02:13:08.077Z,49.20
2017-09-16T02:15:36.372Z,48.00
2017-09-16T02:18:03.946Z,47.80
2017-09-16T02:20:31.416Z,47.10
2017-09-16T02:22:58.981Z,49.00
2017-09-16T02:25:26.412Z,52.00
2017-09-16T02:27:53.853Z,53.30
2017-09-16T02:30:21.340Z,54.80
2017-09-16T02:32:48.769Z,54.20
2017-09-16T02:35:16.208Z,54.50
2017-09-16T02:37:43.637Z,53.50
2017-09-16T02:40:11.169Z,52.90
2017-09-16T02:42:38.618Z,53.40
2017-09-16T02:45:06.092Z,54.80
2017-09-16T02:47:33.859Z,54.40
2017-09-16T02:50:01.289Z,53.70
2017-09-16T02:52:28.719Z,53.30
2017-09-16T02:54:56.152Z,53.30
2017-09-16T02:57:23.589Z,53.30
2017-09-16T02:59:51.007Z,53.30
2017-09-16T03:02:18.580Z,53.30
2017-09-16T03:04:46.345Z,53.30
2017-09-16T03:07:13.997Z,52.70
2017-09-16T03:09:41.574Z,52.10
2017-09-16T03:12:09.325Z,51.10
2017-09-16T03:14:36.749Z,50.50
2017-09-16T03:17:04.240Z,49.70
2017-09-16T03:19:31.703Z,49.50
2017-09-16T03:21:59.341Z,50.50
2017-09-16T03:24:26.825Z,51.10
2017-09-16T03:26:54.366Z,50.90
2017-09-16T03:29:21.864Z,50.30
2017-09-16T03:31:49.600Z,50.20
2017-09-16T03:34:17.066Z,50.60
2017-09-16T03:36:44.502Z,51.00
2017-09-16T03:39:11.968Z,51.80
2017-09-16T03:41:39.596Z,52.00
2017-09-16T03:44:07.037Z,52.80
2017-09-16T03:46:35.261Z,50.80
2017-09-16T03:49:02.701Z,50.70
2017-09-16T03:51:30.135Z,50.50
2017-09-16T03:53:57.555Z,51.30
2017-09-16T03:56:25.087Z,51.80
2017-09-16T03:58:52.522Z,51.70
2017-09-16T04:01:31.758Z,52.40
2017-09-16T04:03:59.312Z,52.80
2017-09-16T04:06:26.773Z,52.80
2017-09-16T04:08:54.336Z,51.90
2017-09-16T04:11:21.764Z,50.20
2017-09-16T04:13:49.200Z,48.90
2017-09-16T04:16:16.641Z,48.50
2017-09-16T04:18:44.174Z,48.30
2017-09-16T04:21:11.606Z,48.00
2017-09-16T04:23:39.041Z,47.70
2017-09-16T04:26:06.484Z,47.40
2017-09-16T04:28:33.909Z,47.20
2017-09-16T04:31:01.365Z,46.10
2017-09-16T04:33:28.792Z,46.40
2017-09-16T04:35:56.541Z,46.20
2017-09-16T04:38:23.959Z,46.70
2017-09-16T04:40:51.402Z,48.40
2017-09-16T04:43:18.856Z,48.50
2017-09-16T04:45:46.371Z,47.80
2017-09-16T04:48:13.947Z,47.70
2017-09-16T04:50:41.703Z,47.90
2017-09-16T04:53:09.137Z,47.50
2017-09-16T04:55:36.556Z,47.80
2017-09-16T04:58:04.077Z,48.50
2017-09-16T05:00:31.497Z,49.10
2017-09-16T05:02:58.992Z,48.80
2017-09-16T05:05:26.421Z,48.00
2017-09-16T05:07:53.853Z,47.00
2017-09-16T05:10:21.277Z,46.20
2017-09-16T05:12:48.733Z,45.50
2017-09-16T05:15:16.264Z,45.40
2017-09-16T05:17:43.696Z,45.70
2017-09-16T05:20:11.181Z,46.20
2017-09-16T05:22:38.618Z,46.80
2017-09-16T05:25:06.054Z,47.10
2017-09-16T05:27:33.477Z,46.80
2017-09-16T05:30:01.017Z,46.60
2017-09-16T05:32:28.473Z,46.30
2017-09-16T05:34:55.933Z,46.00
2017-09-16T05:37:23.705Z,46.50
2017-09-16T05:39:51.136Z,46.90
2017-09-16T05:42:18.561Z,46.90
2017-09-16T05:44:46.021Z,46.90
2017-09-16T05:47:13.429Z,47.40
2017-09-16T05:49:40.859Z,48.20
2017-09-16T05:52:08.371Z,48.20
2017-09-16T05:54:35.885Z,48.00
2017-09-16T05:57:03.326Z,47.40
2017-09-16T05:59:30.807Z,47.20
2017-09-16T06:01:58.248Z,46.80
2017-09-16T06:04:25.677Z,47.10
2017-09-16T06:06:53.124Z,49.10
2017-09-16T06:09:20.545Z,49.80
2017-09-16T06:11:47.979Z,50.40
2017-09-16T06:14:15.410Z,51.60
2017-09-16T06:16:42.997Z,52.20
2017-09-16T06:19:10.628Z,51.60
2017-09-16T06:21:38.121Z,51.50
2017-09-16T06:24:05.554Z,51.20
2017-09-16T06:26:33.023Z,51.20
2017-09-16T06:29:00.573Z,51.10
2017-09-16T06:31:28.008Z,50.60
2017-09-16T06:33:55.490Z,50.10
2017-09-16T06:36:22.925Z,50.00
2017-09-16T06:38:50.408Z,49.90
2017-09-16T06:41:18.060Z,49.90
2017-09-16T06:43:45.502Z,50.10
2017-09-16T06:46:12.989Z,49.30
2017-09-16T06:48:40.458Z,50.50
2017-09-16T06:51:07.890Z,50.10
2017-09-16T06:53:35.408Z,50.40
2017-09-16T06:56:02.820Z,51.40
2017-09-16T06:58:30.364Z,50.20
2017-09-16T07:00:57.829Z,48.70
2017-09-16T07:03:25.439Z,49.70
2017-09-16T07:05:53.655Z,49.90
2017-09-16T07:08:21.110Z,49.90
2017-09-16T07:10:48.564Z,48.60
2017-09-16T07:13:15.997Z,50.00
2017-09-16T07:15:43.480Z,50.20
2017-09-16T07:18:10.917Z,51.70
2017-09-16T07:20:38.388Z,51.50
2017-09-16T07:23:05.817Z,51.90
2017-09-16T07:25:33.387Z,51.30
2017-09-16T07:28:01.063Z,52.30
2017-09-16T07:30:28.508Z,50.40
2017-09-16T07:32:55.981Z,51.10
2017-09-16T07:35:23.401Z,48.80
2017-09-16T07:37:50.845Z,47.10
2017-09-16T07:40:18.268Z,46.80
2017-09-16T07:42:45.821Z,46.80
2017-09-16T07:45:13.250Z,48.10
2017-09-16T07:47:40.684Z,47.30
2017-09-16T07:50:08.561Z,48.30
2017-09-16T07:52:36.130Z,47.50
2017-09-16T07:55:03.584Z,47.40
2017-09-16T07:57:31.153Z,48.80
2017-09-16T07:59:58.588Z,50.70
2017-09-16T08:02:26.021Z,51.90
2017-09-16T08:04:53.465Z,50.10
2017-09-16T08:07:20.993Z,48.20
2017-09-16T08:09:48.421Z,48.10
2017-09-16T08:12:15.896Z,48.00
2017-09-16T08:14:43.337Z,47.60
2017-09-16T08:17:10.784Z,47.70
2017-09-16T08:19:38.263Z,46.50
2017-09-16T08:22:05.735Z,48.20
2017-09-16T08:24:33.176Z,44.90
2017-09-16T08:27:00.587Z,45.00
2017-09-16T08:29:28.060Z,45.00
2017-09-16T08:31:55.475Z,46.10
2017-09-16T08:34:23.005Z,45.80
2017-09-16T08:36:50.512Z,45.90
2017-09-16T08:39:18.237Z,44.30
2017-09-16T08:41:45.884Z,44.70
2017-09-16T08:44:13.361Z,42.70
2017-09-16T08:46:41.533Z,44.00
2017-09-16T08:49:09.278Z,43.70
2017-09-16T08:51:36.721Z,42.10
2017-09-16T08:54:04.150Z,43.40
2017-09-16T08:56:31.658Z,47.00
2017-09-16T08:58:59.413Z,45.30
2017-09-16T09:01:26.838Z,45.80
2017-09-16T09:03:54.341Z,45.30
2017-09-16T09:06:22.080Z,44.40
2017-09-16T09:08:49.507Z,43.30
2017-09-16T09:11:16.996Z,40.80
2017-09-16T09:13:44.757Z,41.00
2017-09-16T09:16:12.192Z,42.60
2017-09-16T09:18:39.617Z,43.70
2017-09-16T09:21:07.129Z,38.20
2017-09-16T09:23:34.589Z,36.60
2017-09-16T09:26:02.044Z,35.50
2017-09-16T09:28:29.681Z,37.30
2017-09-16T09:30:57.216Z,39.60
2017-09-16T09:33:24.636Z,38.50
2017-09-16T09:35:52.075Z,35.90
2017-09-16T09:38:19.657Z,35.00
2017-09-16T09:40:47.388Z,35.50
2017-09-16T09:43:14.845Z,37.10
2017-09-16T09:45:42.282Z,38.70
2017-09-16T09:48:09.703Z,36.10
2017-09-16T09:50:37.217Z,37.70
2017-09-16T09:53:04.647Z,37.70
2017-09-16T09:55:32.128Z,33.70
2017-09-16T09:57:59.548Z,32.10
2017-09-16T10:00:27.050Z,31.90
2017-09-16T10:02:54.467Z,36.30
2017-09-16T10:05:21.887Z,32.30
2017-09-16T10:07:49.316Z,29.70
2017-09-16T10:10:16.769Z,29.40
2017-09-16T10:12:44.237Z,30.90
2017-09-16T10:15:11.684Z,31.50
2017-09-16T10:17:39.140Z,27.60
2017-09-16T10:20:06.560Z,28.50
2017-09-16T10:22:34.091Z,25.60
2017-09-16T10:25:02.280Z,19.80
2017-09-16T10:27:29.894Z,19.80
2017-09-16T10:29:57.315Z,19.90
2017-09-16T10:32:24.772Z,20.90
2017-09-16T10:34:52.352Z,22.30
2017-09-16T10:37:19.793Z,22.70
2017-09-16T10:39:47.217Z,20.30
2017-09-16T10:42:14.652Z,20.00
2017-09-16T10:44:42.077Z,20.70
2017-09-16T10:47:09.547Z,19.40
2017-09-16T10:49:37.077Z,21.40
2017-09-16T10:52:04.525Z,22.50
2017-09-16T10:54:31.950Z,23.10
2017-09-16T10:57:00.150Z,19.20
2017-09-16T10:59:27.811Z,19.20
2017-09-16T11:01:55.251Z,20.20
2017-09-16T11:04:22.745Z,20.20
2017-09-16T11:06:50.214Z,20.10
2017-09-16T11:09:17.636Z,20.20
2017-09-16T11:11:45.061Z,20.70
2017-09-16T11:14:12.496Z,19.80
2017-09-16T11:16:39.944Z,21.00
2017-09-16T11:19:07.377Z,21.80
2017-09-16T11:21:34.806Z,22.30
2017-09-16T11:24:03.075Z,18.80
2017-09-16T11:26:30.664Z,18.80
2017-09-16T11:28:58.113Z,19.70
2017-09-16T11:31:25.684Z,19.70
2017-09-16T11:33:53.126Z,17.90
2017-09-16T11:36:20.559Z,18.30
2017-09-16T11:38:48.023Z,18.60
2017-09-16T11:41:15.436Z,17.90
2017-09-16T11:43:42.897Z,18.70
2017-09-16T11:46:10.425Z,18.00
2017-09-16T11:48:37.889Z,16.90
2017-09-16T11:51:05.494Z,15.90
2017-09-16T11:53:32.968Z,17.10
2017-09-16T11:56:00.428Z,17.50
2017-09-16T11:58:28.653Z,16.10
2017-09-16T12:00:56.139Z,16.10
2017-09-16T12:03:23.756Z,17.00
2017-09-16T12:05:51.269Z,18.20
2017-09-16T12:08:18.812Z,19.60
2017-09-16T12:10:46.253Z,19.00
2017-09-16T12:13:13.867Z,18.90
2017-09-16T12:15:41.314Z,17.90
2017-09-16T12:18:08.846Z,18.60
2017-09-16T12:20:36.277Z,16.90
2017-09-16T12:23:03.794Z,16.20
2017-09-16T12:25:31.240Z,15.00
2017-09-16T12:27:58.725Z,17.30
2017-09-16T12:30:26.174Z,14.10
2017-09-16T12:32:53.589Z,13.00
2017-09-16T12:35:21.034Z,10.80
2017-09-16T12:37:48.454Z,11.50
2017-09-16T12:40:15.962Z,11.20
2017-09-16T12:42:43.392Z,12.20
2017-09-16T12:45:10.913Z,11.30
2017-09-16T12:47:38.397Z,10.30
2017-09-16T12:50:06.589Z,9.70
2017-09-16T12:52:34.196Z,9.80
2017-09-16T12:55:01.661Z,10.30
2017-09-16T12:57:29.116Z,11.10
2017-09-16T12:59:56.553Z,11.40
2017-09-16T13:02:24.034Z,13.60
2017-09-16T13:04:51.669Z,10.00
2017-09-16T13:07:19.249Z,9.60
2017-09-16T13:09:46.742Z,11.20
2017-09-16T13:12:15.677Z,11.60
2017-09-16T13:14:43.113Z,11.70
2017-09-16T13:17:10.089Z,11.40
2017-09-16T13:19:37.368Z,12.70
2017-09-16T13:22:04.825Z,13.60
2017-09-16T13:24:32.303Z,14.00
2017-09-16T13:26:59.826Z,14.70
2017-09-16T13:29:27.255Z,14.80
2017-09-16T13:31:54.691Z,16.00
2017-09-16T13:34:22.145Z,17.00
2017-09-16T13:36:49.576Z,15.20
2017-09-16T13:39:17.109Z,15.20
2017-09-16T13:41:44.544Z,16.70
2017-09-16T13:44:11.968Z,17.70
2017-09-16T13:46:39.417Z,18.50
2017-09-16T13:49:06.937Z,19.20
2017-09-16T13:51:34.656Z,19.20
2017-09-16T13:54:02.053Z,19.50
2017-09-16T13:56:29.624Z,18.40
2017-09-16T13:58:57.246Z,18.40
2017-09-16T14:01:24.741Z,18.80
2017-09-16T14:03:52.197Z,19.70
2017-09-16T14:06:19.741Z,20.50
2017-09-16T14:08:47.514Z,21.80
2017-09-16T14:11:15.273Z,23.10
2017-09-16T14:13:42.749Z,24.50
2017-09-16T14:16:10.201Z,23.90
2017-09-16T14:18:37.836Z,25.30
2017-09-16T14:21:05.321Z,24.40
2017-09-16T14:23:33.676Z,25.60
2017-09-16T14:26:01.233Z,25.30
2017-09-16T14:28:28.678Z,22.50
2017-09-16T14:30:56.109Z,23.10
2017-09-16T14:33:23.614Z,23.60
2017-09-16T14:35:51.055Z,24.10
2017-09-16T14:38:18.509Z,25.60
2017-09-16T14:40:45.937Z,25.90
2017-09-16T14:43:13.420Z,25.90
2017-09-16T14:45:41.046Z,24.60
2017-09-16T14:48:09.446Z,23.50
2017-09-16T14:50:36.890Z,23.50
2017-09-16T14:53:04.477Z,21.10
2017-09-16T14:55:31.928Z,20.10
2017-09-16T14:57:59.382Z,15.70
2017-09-16T15:00:26.794Z,10.10
2017-09-16T15:02:54.209Z,5.10
2017-09-16T15:05:21.674Z,1.60
2017-09-16T15:07:49.104Z,1.00
2017-09-16T15:10:16.585Z,1.00
2017-09-16T15:12:44.045Z,1.00
2017-09-16T15:15:11.474Z,1.00
2017-09-16T15:17:39.036Z,1.00
2017-09-16T15:20:06.473Z,1.00
2017-09-16T15:22:33.889Z,1.00
2017-09-16T15:25:01.325Z,1.00
2017-09-16T15:27:28.741Z,1.00
2017-09-16T15:29:56.214Z,1.00
2017-09-16T15:32:23.684Z,1.00
2017-09-16T15:34:51.236Z,1.00
2017-09-16T15:37:18.739Z,1.00
2017-09-16T15:39:46.447Z,1.20
2017-09-16T15:42:13.891Z,2.60
2017-09-16T15:44:42.292Z,4.60
2017-09-16T15:47:09.746Z,6.60
2017-09-16T15:49:37.170Z,7.70
2017-09-16T15:52:04.669Z,8.40
2017-09-16T15:54:31.734Z,8.50
2017-09-16T15:56:59.171Z,9.20
2017-09-16T15:59:26.721Z,8.80
2017-09-16T16:01:54.167Z,7.50
2017-09-16T16:04:21.580Z,6.60
2017-09-16T16:06:49.018Z,5.30
2017-09-16T16:09:16.436Z,3.60
2017-09-16T16:11:43.883Z,2.50
2017-09-16T16:14:11.364Z,1.00
2017-09-16T16:16:38.794Z,1.00
2017-09-16T16:19:06.257Z,1.00
2017-09-16T16:21:33.714Z,1.00
2017-09-16T16:24:02.124Z,1.00
2017-09-16T16:26:29.555Z,1.00
2017-09-16T16:28:57.024Z,1.00
2017-09-16T16:31:24.578Z,1.00
2017-09-16T16:33:52.024Z,1.00
2017-09-16T16:36:19.436Z,1.00
2017-09-16T16:38:46.862Z,1.20
2017-09-16T16:41:14.312Z,1.00
2017-09-16T16:43:41.858Z,1.00
2017-09-16T16:46:09.300Z,1.00
2017-09-16T16:48:36.717Z,1.00
2017-09-16T16:51:04.141Z,1.10
2017-09-16T16:53:31.680Z,1.60
2017-09-16T16:55:59.100Z,2.30
2017-09-16T16:58:26.515Z,3.20
2017-09-16T17:00:54.001Z,4.40
2017-09-16T17:03:22.345Z,6.90
2017-09-16T17:05:49.809Z,6.90
2017-09-16T17:08:17.338Z,7.50
2017-09-16T17:10:44.767Z,8.60
2017-09-16T17:13:12.187Z,9.60
2017-09-16T17:15:40.689Z,10.40
2017-09-16T17:18:08.285Z,10.00
2017-09-16T17:20:35.873Z,10.50
2017-09-16T17:23:03.317Z,10.90
2017-09-16T17:25:30.753Z,11.60
2017-09-16T17:27:58.185Z,12.40
2017-09-16T17:30:25.746Z,13.10
2017-09-16T17:32:53.444Z,13.60
2017-09-16T17:35:20.874Z,13.20
2017-09-16T17:37:48.353Z,13.80
2017-09-16T17:40:15.807Z,14.30
2017-09-16T17:42:43.254Z,14.70
2017-09-16T17:45:10.672Z,15.40
2017-09-16T17:47:38.097Z,16.40
2017-09-16T17:50:05.542Z,17.30
2017-09-16T17:52:32.974Z,18.30
2017-09-16T17:55:00.422Z,18.20
2017-09-16T17:57:27.874Z,19.20
2017-09-16T17:59:55.333Z,19.30
2017-09-16T18:02:22.892Z,20.00
2017-09-16T18:04:50.321Z,20.70
2017-09-16T18:07:17.750Z,22.10
2017-09-16T18:09:45.285Z,23.60
2017-09-16T18:12:12.704Z,23.60
2017-09-16T18:14:40.131Z,24.20
2017-09-16T18:17:07.608Z,25.30
2017-09-16T18:19:37.185Z,24.80
2017-09-16T18:22:04.616Z,25.00
2017-09-16T18:24:32.052Z,25.60
2017-09-16T18:26:59.499Z,25.40
2017-09-16T18:29:26.921Z,26.70
2017-09-16T18:31:55.120Z,27.90
2017-09-16T18:34:22.554Z,27.90
2017-09-16T18:36:49.984Z,28.10
2017-09-16T18:39:17.414Z,29.10
2017-09-16T18:41:44.973Z,28.20
2017-09-16T18:44:12.438Z,29.90
2017-09-16T18:46:39.901Z,30.20
2017-09-16T18:49:07.649Z,30.40
2017-09-16T18:51:35.079Z,29.40
2017-09-16T18:54:02.501Z,28.70
2017-09-16T18:56:29.944Z,28.20
2017-09-16T18:58:57.389Z,28.10
2017-09-16T19:01:24.833Z,28.00
2017-09-16T19:03:52.307Z,28.30
2017-09-16T19:06:19.729Z,29.10
2017-09-16T19:08:47.197Z,29.60
2017-09-16T19:11:14.757Z,30.60
2017-09-16T19:13:42.204Z,32.50
2017-09-16T19:16:09.629Z,32.50
2017-09-16T19:18:37.069Z,31.90
2017-09-16T19:21:04.584Z,31.50
2017-09-16T19:23:32.041Z,30.60
2017-09-16T19:25:59.818Z,30.70
2017-09-16T19:28:27.435Z,31.10
2017-09-16T19:30:54.972Z,33.50
2017-09-16T19:33:23.289Z,33.40
2017-09-16T19:35:50.862Z,33.30
2017-09-16T19:38:18.491Z,33.50
2017-09-16T19:40:45.925Z,33.10
2017-09-16T19:43:14.139Z,32.80
2017-09-16T19:45:41.609Z,32.70
2017-09-16T19:48:09.045Z,32.80
2017-09-16T19:50:36.476Z,33.20
2017-09-16T19:53:03.975Z,33.90
2017-09-16T19:55:31.732Z,34.10
2017-09-16T19:57:59.189Z,34.50
2017-09-16T20:00:26.828Z,35.00
2017-09-16T20:02:54.410Z,35.70
2017-09-16T20:05:21.872Z,35.60
2017-09-16T20:07:49.310Z,35.40
2017-09-16T20:10:16.744Z,36.20
2017-09-16T20:12:44.232Z,36.20
2017-09-16T20:15:11.689Z,36.70
2017-09-16T20:17:39.341Z,36.80
2017-09-16T20:20:06.908Z,37.00
2017-09-16T20:22:34.349Z,36.70
2017-09-16T20:25:01.835Z,36.60
2017-09-16T20:27:29.476Z,36.60
2017-09-16T20:29:56.919Z,37.30
2017-09-16T20:32:24.412Z,37.80
2017-09-16T20:34:51.967Z,37.90
2017-09-16T20:37:19.727Z,38.40
2017-09-16T20:39:47.377Z,38.60
2017-09-16T20:42:14.950Z,38.60
2017-09-16T20:44:42.707Z,38.80
2017-09-16T20:47:10.156Z,38.80
2017-09-16T20:49:37.609Z,39.20
2017-09-16T20:52:05.036Z,39.10
2017-09-16T20:54:32.474Z,39.10
2017-09-16T20:56:59.998Z,38.90
2017-09-16T20:59:27.638Z,38.40
2017-09-16T21:01:55.068Z,38.20
2017-09-16T21:04:22.661Z,38.20
2017-09-16T21:06:50.096Z,38.70
2017-09-16T21:09:17.589Z,38.50
2017-09-16T21:11:44.993Z,38.70
2017-09-16T21:14:12.497Z,39.50
2017-09-16T21:16:40.248Z,39.70
2017-09-16T21:19:07.893Z,40.00
2017-09-16T21:21:35.390Z,39.90
2017-09-16T21:24:02.831Z,40.30
2017-09-16T21:26:30.300Z,40.30
2017-09-16T21:28:57.801Z,39.60
2017-09-16T21:31:25.225Z,39.60
2017-09-16T21:33:52.658Z,39.80
2017-09-16T21:36:20.214Z,39.60
2017-09-16T21:38:47.641Z,40.00
2017-09-16T21:41:15.131Z,40.10
2017-09-16T21:43:42.881Z,40.10
2017-09-16T21:46:10.306Z,40.50
2017-09-16T21:48:37.760Z,39.80
2017-09-16T21:51:05.198Z,39.70
2017-09-16T21:53:32.645Z,40.00
2017-09-16T21:56:00.077Z,39.80
2017-09-16T21:58:27.631Z,40.50
2017-09-16T22:00:55.081Z,40.80
2017-09-16T22:03:22.716Z,41.50
2017-09-16T22:05:50.182Z,41.60
2017-09-16T22:08:17.751Z,41.50
2017-09-16T22:10:45.181Z,40.90
2017-09-16T22:13:12.656Z,41.20
2017-09-16T22:15:40.105Z,41.40
2017-09-16T22:18:07.580Z,41.40
2017-09-16T22:20:35.013Z,41.40
2017-09-16T22:23:02.442Z,41.00
2017-09-16T22:25:29.868Z,40.90
2017-09-16T22:27:57.352Z,40.80
2017-09-16T22:30:24.793Z,41.30
2017-09-16T22:32:52.233Z,41.30
2017-09-16T22:35:19.678Z,41.30
2017-09-16T22:37:47.142Z,41.30
2017-09-16T22:40:14.617Z,42.20
2017-09-16T22:42:42.045Z,41.40
2017-09-16T22:45:09.607Z,42.10
2017-09-16T22:47:37.025Z,42.30
2017-09-16T22:50:04.498Z,42.20
2017-09-16T22:52:31.937Z,42.50
2017-09-16T22:54:59.401Z,43.00
2017-09-16T22:57:26.789Z,43.70
2017-09-16T22:59:54.225Z,43.60
2017-09-16T23:02:21.668Z,43.30
2017-09-16T23:04:49.086Z,43.90
2017-09-16T23:07:16.621Z,44.40
2017-09-16T23:09:44.159Z,43.80
2017-09-16T23:12:11.597Z,44.70
2017-09-16T23:14:39.069Z,45.00
2017-09-16T23:17:06.503Z,45.20
2017-09-16T23:19:34.040Z,45.20
2017-09-16T23:22:01.530Z,45.00
2017-09-16T23:24:29.233Z,45.10
2017-09-16T23:26:56.677Z,43.60
2017-09-16T23:29:24.117Z,42.90
2017-09-16T23:31:51.756Z,42.90
2017-09-16T23:34:19.272Z,43.30
2017-09-16T23:36:46.728Z,46.00
2017-09-16T23:39:14.177Z,46.70
2017-09-16T23:41:41.597Z,45.90
2017-09-16T23:44:09.174Z,45.20
2017-09-16T23:46:36.620Z,45.50
2017-09-16T23:49:04.052Z,44.70
2017-09-16T23:51:31.473Z,44.50
2017-09-16T23:53:58.980Z,44.40
2017-09-16T23:56:26.446Z,44.30
2017-09-16T23:58:53.888Z,43.60
